createdAt,value
2023-01-09T00:01:32.188Z,79.50
2023-01-09T00:04:01.752Z,79.80
2023-01-09T00:06:30.082Z,80.60
2023-01-09T00:08:58.380Z,81.70
2023-01-09T00:11:27.045Z,83.00
2023-01-09T00:13:55.269Z,84.50
2023-01-09T00:16:23.433Z,85.90
2023-01-09T00:18:53.280Z,86.70
2023-01-09T00:21:22.840Z,88.00
2023-01-09T00:23:51.112Z,88.90
2023-01-09T00:26:21.155Z,89.40
2023-01-09T00:28:51.325Z,90.00
2023-01-09T00:31:20.203Z,90.10
2023-01-09T00:33:53.652Z,90.00
2023-01-09T00:36:23.392Z,89.80
2023-01-09T00:38:51.840Z,89.50
2023-01-09T00:41:23.945Z,89.50
2023-01-09T00:43:55.873Z,89.40
2023-01-09T00:46:28.075Z,89.70
2023-01-09T00:48:56.637Z,89.80
2023-01-09T00:51:27.811Z,90.80
2023-01-09T00:53:56.318Z,91.10
2023-01-09T00:56:25.695Z,91.40
2023-01-09T00:58:54.676Z,91.80
2023-01-09T01:01:22.912Z,92.10
2023-01-09T01:03:51.154Z,92.20
2023-01-09T01:06:37.074Z,92.20
2023-01-09T01:09:06.902Z,92.50
2023-01-09T01:11:35.318Z,92.70
2023-01-09T01:14:03.485Z,93.00
2023-01-09T01:16:31.701Z,93.10
2023-01-09T01:18:59.909Z,93.00
2023-01-09T01:21:28.255Z,93.20
2023-01-09T01:23:56.420Z,93.10
2023-01-09T01:26:25.992Z,93.00
2023-01-09T01:28:54.211Z,93.00
2023-01-09T01:31:22.387Z,93.00
2023-01-09T01:33:50.540Z,92.90
2023-01-09T01:36:18.739Z,92.40
2023-01-09T01:38:47.883Z,92.20
2023-01-09T01:41:29.303Z,91.70
2023-01-09T01:44:01.024Z,91.40
2023-01-09T01:46:29.976Z,91.30
2023-01-09T01:49:04.699Z,91.80
2023-01-09T01:51:36.747Z,91.30
2023-01-09T01:54:08.694Z,91.20
2023-01-09T01:56:41.000Z,90.80
2023-01-09T01:59:15.126Z,90.90
2023-01-09T02:01:47.013Z,90.80
2023-01-09T02:04:15.376Z,90.40
2023-01-09T02:06:44.621Z,90.30
2023-01-09T02:09:15.258Z,90.00
2023-01-09T02:11:46.543Z,89.40
2023-01-09T02:14:17.055Z,89.80
2023-01-09T02:16:53.592Z,88.70
2023-01-09T02:19:48.905Z,88.40
2023-01-09T02:22:31.234Z,87.40
2023-01-09T02:25:26.979Z,87.40
2023-01-09T02:28:43.460Z,87.30
2023-01-09T02:31:16.435Z,87.20
2023-01-09T02:33:54.616Z,87.40
2023-01-09T02:36:30.173Z,87.70
2023-01-09T02:39:13.940Z,88.30
2023-01-09T02:41:49.728Z,88.40
2023-01-09T02:44:21.296Z,87.80
2023-01-09T02:47:02.137Z,87.70
2023-01-09T02:49:31.351Z,88.20
2023-01-09T02:52:10.563Z,89.10
2023-01-09T02:54:51.702Z,90.00
2023-01-09T02:57:32.577Z,90.30
2023-01-09T03:00:16.842Z,90.70
2023-01-09T03:02:51.247Z,91.00
2023-01-09T03:05:26.628Z,91.20
2023-01-09T03:08:01.603Z,91.80
2023-01-09T03:10:36.699Z,92.20
2023-01-09T03:13:06.590Z,92.80
2023-01-09T03:15:39.328Z,93.20
2023-01-09T03:18:11.640Z,92.80
2023-01-09T03:20:40.572Z,92.70
2023-01-09T03:23:09.383Z,92.40
2023-01-09T03:25:37.530Z,92.10
2023-01-09T03:28:07.658Z,92.70
2023-01-09T03:30:37.760Z,92.10
2023-01-09T03:33:05.982Z,91.80
2023-01-09T03:35:35.707Z,91.70
2023-01-09T03:38:04.791Z,91.40
2023-01-09T03:40:33.903Z,91.60
2023-01-09T03:43:02.223Z,91.60
2023-01-09T03:45:30.410Z,91.50
2023-01-09T03:47:59.433Z,91.90
2023-01-09T03:50:27.564Z,91.80
2023-01-09T03:52:57.067Z,92.00
2023-01-09T03:55:25.219Z,91.90
2023-01-09T03:57:53.649Z,91.90
2023-01-09T04:00:22.598Z,91.90
2023-01-09T04:02:50.722Z,91.90
2023-01-09T04:05:19.116Z,91.90
2023-01-09T04:07:47.283Z,92.10
2023-01-09T04:10:17.347Z,91.50
2023-01-09T04:12:45.519Z,90.80
2023-01-09T04:15:13.686Z,90.50
2023-01-09T04:17:41.817Z,90.10
2023-01-09T04:20:11.285Z,90.20
2023-01-09T04:22:39.734Z,90.50
2023-01-09T04:25:08.423Z,90.00
2023-01-09T04:27:38.369Z,89.10
2023-01-09T04:30:07.896Z,89.40
2023-01-09T04:32:36.182Z,89.50
2023-01-09T04:35:04.429Z,90.00
2023-01-09T04:37:32.637Z,90.10
2023-01-09T04:40:05.102Z,90.20
2023-01-09T04:42:33.275Z,89.60
2023-01-09T04:45:02.862Z,90.20
2023-01-09T04:47:31.533Z,90.10
2023-01-09T04:49:59.919Z,90.00
2023-01-09T04:52:28.375Z,90.10
2023-01-09T04:54:56.686Z,90.40
2023-01-09T04:57:24.873Z,90.60
2023-01-09T04:59:54.224Z,90.00
2023-01-09T05:02:24.069Z,90.10
2023-01-09T05:04:52.337Z,89.90
2023-01-09T05:07:20.589Z,90.10
2023-01-09T05:09:48.751Z,90.00
2023-01-09T05:12:16.964Z,89.10
2023-01-09T05:14:45.182Z,88.00
2023-01-09T05:17:14.466Z,88.20
2023-01-09T05:19:45.497Z,87.40
2023-01-09T05:22:14.080Z,86.00
2023-01-09T05:24:42.415Z,85.90
2023-01-09T05:27:10.691Z,85.80
2023-01-09T05:29:38.864Z,85.80
2023-01-09T05:32:07.058Z,86.20
2023-01-09T05:34:35.359Z,85.10
2023-01-09T05:37:05.176Z,85.80
2023-01-09T05:39:33.298Z,86.20
2023-01-09T05:42:01.446Z,85.20
2023-01-09T05:44:29.651Z,85.00
2023-01-09T05:46:57.809Z,85.00
2023-01-09T05:49:25.941Z,84.00
2023-01-09T05:51:54.310Z,84.70
2023-01-09T05:54:23.918Z,84.90
2023-01-09T05:56:52.105Z,84.30
2023-01-09T05:59:20.640Z,83.90
2023-01-09T06:01:48.885Z,84.00
2023-01-09T06:04:17.197Z,82.70
2023-01-09T06:06:45.346Z,82.40
2023-01-09T06:09:13.513Z,81.70
2023-01-09T06:11:43.055Z,81.90
2023-01-09T06:14:11.181Z,79.50
2023-01-09T06:16:39.609Z,79.90
2023-01-09T06:19:07.752Z,80.50
2023-01-09T06:21:35.925Z,81.90
2023-01-09T06:24:04.315Z,81.70
2023-01-09T06:26:32.689Z,80.50
2023-01-09T06:29:02.326Z,81.80
2023-01-09T06:31:30.684Z,81.90
2023-01-09T06:33:58.861Z,81.80
2023-01-09T06:36:27.213Z,81.00
2023-01-09T06:38:55.324Z,80.90
2023-01-09T06:41:23.450Z,81.50
2023-01-09T06:43:51.666Z,80.60
2023-01-09T06:46:21.370Z,79.70
2023-01-09T06:48:49.804Z,80.90
2023-01-09T06:51:17.952Z,79.50
2023-01-09T06:53:46.069Z,80.20
2023-01-09T06:56:14.267Z,80.50
2023-01-09T06:58:42.523Z,79.80
2023-01-09T07:01:10.745Z,79.70
2023-01-09T07:03:40.459Z,80.30
2023-01-09T07:06:08.745Z,79.80
2023-01-09T07:08:37.038Z,79.10
2023-01-09T07:11:05.432Z,78.80
2023-01-09T07:13:33.595Z,78.60
2023-01-09T07:16:03.324Z,78.00
2023-01-09T07:18:31.592Z,77.60
2023-01-09T07:21:01.235Z,77.80
2023-01-09T07:23:29.470Z,76.80
2023-01-09T07:25:58.388Z,77.20
2023-01-09T07:28:26.520Z,77.50
2023-01-09T07:30:55.159Z,76.20
2023-01-09T07:33:23.395Z,76.20
2023-01-09T07:35:52.710Z,75.10
2023-01-09T07:38:22.367Z,75.10
2023-01-09T07:40:50.586Z,74.90
2023-01-09T07:43:18.747Z,74.30
2023-01-09T07:45:47.923Z,74.60
2023-01-09T07:48:16.297Z,74.30
2023-01-09T07:50:44.514Z,73.90
2023-01-09T07:53:12.766Z,73.80
2023-01-09T07:55:43.599Z,73.80
2023-01-09T07:58:11.776Z,73.40
2023-01-09T08:00:39.920Z,73.40
2023-01-09T08:03:08.448Z,73.00
2023-01-09T08:05:36.828Z,72.90
2023-01-09T08:08:05.275Z,72.50
2023-01-09T08:10:33.643Z,72.20
2023-01-09T08:13:03.427Z,71.60
2023-01-09T08:15:33.539Z,72.80
2023-01-09T08:18:01.915Z,71.80
2023-01-09T08:20:30.405Z,71.60
2023-01-09T08:22:58.668Z,71.90
2023-01-09T08:25:26.929Z,72.50
2023-01-09T08:27:55.306Z,71.20
2023-01-09T08:30:24.947Z,71.40
2023-01-09T08:32:54.953Z,68.80
2023-01-09T08:35:23.207Z,69.80
2023-01-09T08:37:51.564Z,69.40
2023-01-09T08:40:20.128Z,69.10
2023-01-09T08:43:05.985Z,70.80
2023-01-09T08:45:53.345Z,69.70
2023-01-09T08:48:21.568Z,69.30
2023-01-09T08:50:49.754Z,67.40
2023-01-09T08:53:17.971Z,67.20
2023-01-09T08:55:46.217Z,68.20
2023-01-09T08:58:14.616Z,69.80
2023-01-09T09:00:44.214Z,69.80
2023-01-09T09:03:12.709Z,69.40
2023-01-09T09:05:40.948Z,68.80
2023-01-09T09:08:09.453Z,69.60
2023-01-09T09:10:37.763Z,69.60
2023-01-09T09:13:06.334Z,69.30
2023-01-09T09:15:34.795Z,69.60
2023-01-09T09:18:07.053Z,70.50
2023-01-09T09:20:37.599Z,69.20
2023-01-09T09:23:08.111Z,71.00
2023-01-09T09:25:38.219Z,69.90
2023-01-09T09:28:07.040Z,71.20
2023-01-09T09:30:35.461Z,68.90
2023-01-09T09:33:05.909Z,68.80
2023-01-09T09:35:34.923Z,68.80
2023-01-09T09:38:05.659Z,69.10
2023-01-09T09:40:55.650Z,68.80
2023-01-09T09:44:00.450Z,68.30
2023-01-09T09:46:37.112Z,67.50
2023-01-09T09:49:13.913Z,68.60
2023-01-09T09:51:55.241Z,67.40
2023-01-09T09:54:31.394Z,67.40
2023-01-09T09:57:01.943Z,68.40
2023-01-09T09:59:33.408Z,67.50
2023-01-09T10:02:06.669Z,67.50
2023-01-09T10:04:42.041Z,67.10
2023-01-09T10:07:28.234Z,67.60
2023-01-09T10:10:00.389Z,67.60
2023-01-09T10:12:30.632Z,66.00
2023-01-09T10:15:00.683Z,66.90
2023-01-09T10:17:58.156Z,67.70
2023-01-09T10:20:41.629Z,66.90
2023-01-09T10:23:24.048Z,63.20
2023-01-09T10:25:57.699Z,64.50
2023-01-09T10:28:52.650Z,64.70
2023-01-09T10:31:30.721Z,64.60
2023-01-09T10:34:12.969Z,63.30
2023-01-09T10:37:01.700Z,63.70
2023-01-09T10:39:36.202Z,65.50
2023-01-09T10:42:15.038Z,64.80
2023-01-09T10:44:49.813Z,65.70
2023-01-09T10:47:21.691Z,64.70
2023-01-09T10:49:55.289Z,65.30
2023-01-09T10:52:29.935Z,64.70
2023-01-09T10:55:02.579Z,64.80
2023-01-09T10:57:42.148Z,62.80
2023-01-09T11:00:18.280Z,63.10
2023-01-09T11:02:46.944Z,63.70
2023-01-09T11:05:19.631Z,64.10
2023-01-09T11:07:57.027Z,63.00
2023-01-09T11:10:44.843Z,62.90
2023-01-09T11:13:19.388Z,62.20
2023-01-09T11:15:48.030Z,65.30
2023-01-09T11:18:24.412Z,63.70
2023-01-09T11:20:53.456Z,64.40
2023-01-09T11:23:41.706Z,65.30
2023-01-09T11:26:23.574Z,65.20
2023-01-09T11:29:11.905Z,66.30
2023-01-09T11:31:41.798Z,66.40
2023-01-09T11:34:17.455Z,67.70
2023-01-09T11:36:46.718Z,68.40
2023-01-09T11:39:25.027Z,68.00
2023-01-09T11:41:55.967Z,67.50
2023-01-09T11:44:25.360Z,68.90
2023-01-09T11:46:53.744Z,69.50
2023-01-09T11:49:24.234Z,71.40
2023-01-09T11:52:16.878Z,72.20
2023-01-09T11:54:52.218Z,73.10
2023-01-09T11:57:22.613Z,74.60
2023-01-09T11:59:51.218Z,76.20
2023-01-09T12:02:45.156Z,76.70
2023-01-09T12:05:22.470Z,78.40
2023-01-09T12:08:11.783Z,78.70
2023-01-09T12:11:02.355Z,78.30
2023-01-09T12:13:46.941Z,77.00
2023-01-09T12:16:25.664Z,76.40
2023-01-09T12:19:06.293Z,76.60
2023-01-09T12:21:36.054Z,75.40
2023-01-09T12:24:26.537Z,74.60
2023-01-09T12:27:05.140Z,73.20
2023-01-09T12:29:55.907Z,73.40
2023-01-09T12:32:41.136Z,73.80
2023-01-09T12:35:20.127Z,72.80
2023-01-09T12:38:11.884Z,72.90
2023-01-09T12:41:16.829Z,73.20
2023-01-09T12:44:01.326Z,74.30
2023-01-09T12:46:38.668Z,75.10
2023-01-09T12:49:24.711Z,74.90
2023-01-09T12:52:01.441Z,76.10
2023-01-09T12:54:35.904Z,74.70
2023-01-09T12:57:08.397Z,75.90
2023-01-09T12:59:42.782Z,75.70
2023-01-09T13:02:20.618Z,75.60
2023-01-09T13:04:56.009Z,75.50
2023-01-09T13:07:27.945Z,75.50
2023-01-09T13:10:01.448Z,76.10
2023-01-09T13:12:34.492Z,76.50
2023-01-09T13:15:08.311Z,75.20
2023-01-09T13:17:43.613Z,75.90
2023-01-09T13:20:22.168Z,75.80
2023-01-09T13:22:52.434Z,75.60
2023-01-09T13:25:43.390Z,74.40
2023-01-09T13:28:18.752Z,74.00
2023-01-09T13:31:13.987Z,73.40
2023-01-09T13:33:44.992Z,73.00
2023-01-09T13:36:24.081Z,73.50
2023-01-09T13:38:52.785Z,74.10
2023-01-09T13:41:38.642Z,74.30
2023-01-09T13:44:20.411Z,73.70
2023-01-09T13:46:52.892Z,73.80
2023-01-09T13:49:54.810Z,73.40
2023-01-09T13:52:40.618Z,74.10
2023-01-09T13:55:37.179Z,74.10
2023-01-09T13:58:26.778Z,73.80
2023-01-09T14:01:00.976Z,73.30
2023-01-09T14:03:35.795Z,72.80
2023-01-09T14:06:24.384Z,72.50
2023-01-09T14:09:24.531Z,72.50
2023-01-09T14:12:07.133Z,71.90
2023-01-09T14:14:37.425Z,72.10
2023-01-09T14:17:19.388Z,71.30
2023-01-09T14:20:00.968Z,71.60
2023-01-09T14:22:45.462Z,72.40
2023-01-09T14:25:34.032Z,72.60
2023-01-09T14:28:25.932Z,72.30
2023-01-09T14:31:10.389Z,72.20
2023-01-09T14:33:40.742Z,72.60
2023-01-09T14:36:19.579Z,73.00
2023-01-09T14:38:56.621Z,72.10
2023-01-09T14:41:58.577Z,70.90
2023-01-09T14:44:30.006Z,70.90
2023-01-09T14:47:04.847Z,70.80
2023-01-09T14:49:40.660Z,68.60
2023-01-09T14:52:14.248Z,68.90
2023-01-09T14:54:44.888Z,68.40
2023-01-09T14:57:27.302Z,68.30
2023-01-09T15:00:03.211Z,68.40
2023-01-09T15:02:35.863Z,68.80
2023-01-09T15:05:13.714Z,68.60
2023-01-09T15:07:46.642Z,68.60
2023-01-09T15:10:18.294Z,68.60
2023-01-09T15:12:50.521Z,68.90
2023-01-09T15:15:20.976Z,69.00
2023-01-09T15:17:54.018Z,69.20
2023-01-09T15:20:27.317Z,69.70
2023-01-09T15:22:57.459Z,70.10
2023-01-09T15:25:38.107Z,69.50
2023-01-09T15:31:04.528Z,68.70
2023-01-09T15:33:34.101Z,68.80
2023-01-09T15:36:07.651Z,68.80
2023-01-09T15:38:36.599Z,68.60
2023-01-09T15:41:10.416Z,68.70
2023-01-09T15:43:42.646Z,68.80
2023-01-09T15:46:16.581Z,67.90
2023-01-09T15:48:45.495Z,68.00
2023-01-09T15:51:18.354Z,68.70
2023-01-09T15:53:49.578Z,67.80
2023-01-09T15:56:24.166Z,68.60
2023-01-09T15:58:53.737Z,67.20
2023-01-09T16:01:30.883Z,68.70
2023-01-09T16:04:06.872Z,69.60
2023-01-09T16:06:37.307Z,70.70
2023-01-09T16:09:15.860Z,71.70
2023-01-09T16:11:48.809Z,72.40
2023-01-09T16:14:21.916Z,73.00
2023-01-09T16:16:53.126Z,73.20
2023-01-09T16:19:48.604Z,73.20
2023-01-09T16:22:22.522Z,73.70
2023-01-09T16:24:53.602Z,74.10
2023-01-09T16:27:24.164Z,73.80
2023-01-09T16:29:57.684Z,73.60
2023-01-09T16:32:30.768Z,74.30
2023-01-09T16:35:00.701Z,76.00
2023-01-09T16:37:29.679Z,76.00
2023-01-09T16:40:36.173Z,77.00
2023-01-09T16:43:05.451Z,77.30
2023-01-09T16:45:36.384Z,76.50
2023-01-09T16:48:13.507Z,76.40
2023-01-09T16:50:42.583Z,76.00
2023-01-09T16:53:16.743Z,76.10
2023-01-09T16:55:45.329Z,76.00
2023-01-09T16:58:18.389Z,76.00
2023-01-09T17:00:47.975Z,75.80
2023-01-09T17:03:20.121Z,76.60
2023-01-09T17:05:50.271Z,76.70
2023-01-09T17:08:23.201Z,77.10
2023-01-09T17:10:52.018Z,77.90
2023-01-09T17:13:20.551Z,78.20
2023-01-09T17:15:49.354Z,79.10
2023-01-09T17:18:21.315Z,80.80
2023-01-09T17:20:51.963Z,81.40
2023-01-09T17:23:22.370Z,82.00
2023-01-09T17:26:10.086Z,82.90
2023-01-09T17:28:39.026Z,84.70
2023-01-09T17:31:10.905Z,85.80
2023-01-09T17:33:41.759Z,86.30
2023-01-09T17:36:21.270Z,87.30
2023-01-09T17:38:54.765Z,87.50
2023-01-09T17:41:24.194Z,87.70
2023-01-09T17:43:52.523Z,87.90
2023-01-09T17:46:28.134Z,87.80
2023-01-09T17:48:58.514Z,87.00
2023-01-09T17:51:27.023Z,86.70
2023-01-09T17:53:55.419Z,87.80
2023-01-09T17:56:25.687Z,87.60
2023-01-09T17:58:53.954Z,88.40
2023-01-09T18:01:23.009Z,88.60
2023-01-09T18:03:51.433Z,88.60
2023-01-09T18:06:22.717Z,89.10
2023-01-09T18:08:51.363Z,89.70
2023-01-09T18:11:22.014Z,90.50
2023-01-09T18:13:53.694Z,90.00
2023-01-09T18:16:25.003Z,90.10
2023-01-09T18:18:54.334Z,89.30
2023-01-09T18:21:25.296Z,89.30
2023-01-09T18:23:53.761Z,89.20
2023-01-09T18:26:22.858Z,89.00
2023-01-09T18:28:53.318Z,89.20
2023-01-09T18:31:24.178Z,89.30
2023-01-09T18:33:54.625Z,89.40
2023-01-09T18:36:29.379Z,90.00
2023-01-09T18:38:58.820Z,89.60
2023-01-09T18:41:27.657Z,89.80
2023-01-09T18:43:58.719Z,90.10
2023-01-09T18:46:32.118Z,89.50
2023-01-09T18:49:02.408Z,89.00
2023-01-09T18:51:33.300Z,89.20
2023-01-09T18:54:01.869Z,88.60
2023-01-09T18:56:30.280Z,88.50
2023-01-09T18:58:59.338Z,87.80
2023-01-09T19:01:28.806Z,88.40
2023-01-09T19:03:57.889Z,88.90
2023-01-09T19:06:26.808Z,88.40
2023-01-09T19:08:57.048Z,87.50
2023-01-09T19:11:25.351Z,87.60
2023-01-09T19:13:53.721Z,87.40
2023-01-09T19:16:22.694Z,87.20
2023-01-09T19:18:51.102Z,86.90
2023-01-09T19:21:22.301Z,86.10
2023-01-09T19:23:51.180Z,86.20
2023-01-09T19:26:23.896Z,85.80
2023-01-09T19:28:55.298Z,85.90
2023-01-09T19:31:26.380Z,85.80
2023-01-09T19:33:54.971Z,86.30
2023-01-09T19:36:23.772Z,86.40
2023-01-09T19:38:57.188Z,86.20
2023-01-09T19:41:27.283Z,86.20
2023-01-09T19:43:55.679Z,86.60
2023-01-09T19:46:26.062Z,86.60
2023-01-09T19:48:57.069Z,86.00
2023-01-09T19:51:25.566Z,87.00
2023-01-09T19:53:58.204Z,86.40
2023-01-09T19:56:30.075Z,86.60
2023-01-09T19:59:00.356Z,86.40
2023-01-09T20:01:30.785Z,86.30
2023-01-09T20:04:03.332Z,86.80
2023-01-09T20:06:32.427Z,87.20
2023-01-09T20:09:03.105Z,87.40
2023-01-09T20:11:33.912Z,87.30
2023-01-09T20:14:03.026Z,87.10
2023-01-09T20:16:32.037Z,87.30
2023-01-09T20:19:03.666Z,86.60
2023-01-09T20:21:32.260Z,87.00
2023-01-09T20:24:01.795Z,86.60
2023-01-09T20:26:32.522Z,86.70
2023-01-09T20:29:01.198Z,86.90
2023-01-09T20:31:31.866Z,87.10
2023-01-09T20:34:00.820Z,87.00
2023-01-09T20:36:30.512Z,86.20
2023-01-09T20:39:00.915Z,86.40
2023-01-09T20:41:31.398Z,86.10
2023-01-09T20:44:03.099Z,86.90
2023-01-09T20:46:34.691Z,86.30
2023-01-09T20:49:06.415Z,86.10
2023-01-09T20:51:35.388Z,85.30
2023-01-09T20:54:04.220Z,84.50
2023-01-09T20:56:33.841Z,84.10
2023-01-09T20:59:04.356Z,83.70
2023-01-09T21:01:32.962Z,84.10
2023-01-09T21:04:01.386Z,83.90
2023-01-09T21:06:30.090Z,84.00
2023-01-09T21:08:58.471Z,84.70
2023-01-09T21:11:26.696Z,85.10
2023-01-09T21:13:55.053Z,85.10
2023-01-09T21:16:25.734Z,84.10
2023-01-09T21:18:55.456Z,84.60
2023-01-09T21:21:27.300Z,84.30
2023-01-09T21:23:56.950Z,83.50
2023-01-09T21:26:28.289Z,83.40
2023-01-09T21:28:58.623Z,84.00
2023-01-09T21:31:33.631Z,84.40
2023-01-09T21:34:04.627Z,84.80
2023-01-09T21:36:36.713Z,85.10
2023-01-09T21:39:08.592Z,85.60
2023-01-09T21:41:54.874Z,85.30
2023-01-09T21:44:48.913Z,84.70
2023-01-09T21:47:18.580Z,84.70
2023-01-09T21:49:47.199Z,85.30
2023-01-09T21:52:15.483Z,85.20
2023-01-09T21:54:44.033Z,85.00
2023-01-09T21:57:13.020Z,84.70
2023-01-09T21:59:41.254Z,84.10
2023-01-09T22:02:12.938Z,83.40
2023-01-09T22:04:43.177Z,83.50
2023-01-09T22:07:11.565Z,82.90
2023-01-09T22:09:39.876Z,83.10
2023-01-09T22:12:08.501Z,82.60
2023-01-09T22:14:38.855Z,81.10
2023-01-09T22:17:07.928Z,82.20
2023-01-09T22:19:36.502Z,82.10
2023-01-09T22:22:08.399Z,82.30
2023-01-09T22:24:37.022Z,82.40
2023-01-09T22:27:06.002Z,82.50
2023-01-09T22:29:34.649Z,82.30
2023-01-09T22:32:03.519Z,82.20
2023-01-09T22:34:32.060Z,82.00
2023-01-09T22:37:00.500Z,81.90
2023-01-09T22:39:30.205Z,81.70
2023-01-09T22:41:59.152Z,82.20
2023-01-09T22:44:27.386Z,81.80
2023-01-09T22:46:57.304Z,81.70
2023-01-09T22:49:29.974Z,82.20
2023-01-09T22:51:58.597Z,81.40
2023-01-09T22:54:26.965Z,81.60
2023-01-09T22:56:56.756Z,81.10
2023-01-09T22:59:27.287Z,81.00
2023-01-09T23:02:01.225Z,81.40
2023-01-09T23:04:31.517Z,81.50
2023-01-09T23:06:59.825Z,81.60
2023-01-09T23:09:28.401Z,82.20
2023-01-09T23:12:03.827Z,82.60
2023-01-09T23:14:34.463Z,83.20
2023-01-09T23:17:03.123Z,83.80
2023-01-09T23:19:32.758Z,84.50
2023-01-09T23:22:01.834Z,83.90
2023-01-09T23:24:31.259Z,82.40
2023-01-09T23:27:01.429Z,82.60
2023-01-09T23:29:29.865Z,82.50
2023-01-09T23:31:58.392Z,82.50
2023-01-09T23:34:27.709Z,81.30
2023-01-09T23:36:57.740Z,81.50
2023-01-09T23:39:26.551Z,81.70
2023-01-09T23:42:12.224Z,81.20
2023-01-09T23:44:42.055Z,81.80
2023-01-09T23:47:10.929Z,81.70
2023-01-09T23:49:39.673Z,82.60
2023-01-09T23:52:08.813Z,82.60
2023-01-09T23:54:37.274Z,82.60
2023-01-09T23:57:05.836Z,82.60
2023-01-09T23:59:34.181Z,82.30
